EST,Max TemperatureF,Mean TemperatureF,Min TemperatureF,Max Dew PointF,MeanDew PointF,Min DewpointF,Max Humidity, Mean Humidity, Min Humidity, Max Sea Level PressureIn, Mean Sea Level PressureIn, Min Sea Level PressureIn, Max VisibilityMiles, Mean VisibilityMiles, Min VisibilityMiles, Max Wind SpeedMPH, Mean Wind SpeedMPH, Max Gust SpeedMPH,PrecipitationIn, CloudCover, Events, WindDirDegrees
2013-2-1,14,8,3,9,2,-2,79,71,62,30.34,30.24,30.04,10,10,5,23,14,28,0.00,3,Snow,249
2013-2-2,26,20,14,21,16,9,93,84,73,30.21,30.05,29.95,10,6,1,14,6,17,0.00,8,Snow,239
2013-2-3,21,16,12,14,11,5,93,79,68,30.05,29.98,29.92,10,8,3,17,5,22,0.00,7,Snow,263
2013-2-4,26,20,15,21,19,12,93,87,79,30.05,29.91,29.83,10,6,1,9,4,,0.02,8,Snow,93
2013-2-5,32,22,12,28,22,10,100,88,69,30.00,29.90,29.80,10,4,0,14,3,18,0.01,7,Fog-Snow,247
2013-2-6,33,27,21,27,22,18,86,72,55,30.26,30.19,30.01,10,10,7,9,5,,0.00,3,,165
2013-2-7,42,35,28,34,28,25,100,82,66,30.20,30.01,29.78,7,5,2,12,6,,0.05,3,Rain,118
2013-2-8,33,30,26,34,26,19,100,82,69,30.35,30.11,29.79,10,8,1,22,10,29,0.00,7,Snow,334
2013-2-9,33,26,19,25,21,18,100,78,64,30.41,30.33,30.19,10,9,5,10,3,17,0.00,0,,140
2013-2-10,46,38,30,45,32,23,100,78,65,30.18,29.92,29.63,10,10,4,12,7,23,0.06,6,Rain,152
2013-2-11,48,39,30,45,29,21,93,75,64,29.98,29.78,29.60,10,10,5,31,17,40,0.03,8,Rain,249
2013-2-12,33,30,28,25,23,21,80,73,64,30.10,30.02,29.95,10,10,10,17,11,25,0.00,8,,268
2013-2-13,42,32,21,30,26,19,100,78,53,29.94,29.82,29.73,10,8,3,10,4,,0.00,2,,237
2013-2-14,39,36,32,32,30,23,93,81,65,29.95,29.81,29.73,10,9,5,22,7,31,0.00,8,,240
2013-2-15,32,26,21,27,20,14,86,73,55,30.15,30.07,29.94,10,9,2,15,7,21,0.00,6,Snow,307
2013-2-16,24,17,10,19,13,9,92,78,58,30.12,30.09,30.06,10,9,1,18,6,25,0.00,6,Snow,291
2013-2-17,30,20,10,14,10,7,92,67,40,30.21,30.16,30.11,10,10,4,9,5,,0.00,3,Snow,240
2013-2-18,51,37,23,41,27,12,93,65,50,30.14,29.83,29.52,10,10,7,15,8,32,0.09,3,Rain,171
2013-2-19,42,28,15,41,17,9,100,80,68,30.07,29.81,29.48,10,7,1,28,19,38,0.05,8,Rain-Snow,260
2013-2-20,23,18,12,18,13,9,86,79,68,30.31,30.22,30.07,10,8,2,20,14,28,0.00,8,Snow,284
2013-2-21,28,24,21,19,18,14,86,76,64,30.35,30.27,30.09,10,10,10,23,8,29,0.00,8,Snow,64
2013-2-22,33,27,21,32,26,18,100,92,80,30.07,29.91,29.86,10,4,1,21,13,30,0.04,8,Snow,167
2013-2-23,30,28,26,23,21,19,86,74,64,29.96,29.94,29.91,10,10,7,14,10,18,0.00,8,Snow,253
2013-2-24,35,28,21,25,22,18,93,77,60,30.15,30.07,29.95,10,9,5,12,7,20,0.00,3,,268
2013-2-25,41,31,21,28,25,19,100,81,57,30.20,30.12,30.00,10,8,4,12,4,16,0.00,0,,98
2013-2-26,33,32,32,32,29,23,100,88,69,29.99,29.63,29.45,10,6,1,21,13,31,0.44,6,Rain-Snow,79
2013-2-27,33,32,32,32,32,30,100,97,93,29.62,29.54,29.45,7,2,1,13,4,18,0.23,8,Snow,239
2013-2-28,35,34,32,32,31,28,100,93,87,29.97,29.81,29.60,10,8,1,13,9,18,0.05,8,Rain-Snow,323